KBCT/BCT METAR and TAF weather

Enter ICAO airport designator
Station Type Date Time Source
KBCT METAR 2021/07/30 02:47 UTC NOAA

KBCT 300247Z 00000KT 10SM CLR 26/23 A3006 RMK LAST


Station Type Date Time Source
KBCT Decoded METAR 2021/07/30 02:47 UTC NOAA

Boca Raton, Boca Raton Airport, FL, United States (KBCT) 26-22-43N 080-06-28W
Jul 29, 2021 - 10:47 PM EDT / 2021.07.30 0247 UTC
Wind: Calm:0
Visibility: 10 mile(s):0
Sky conditions: clear
Temperature: 78 F (26 C)
Dew Point: 73 F (23 C)
Relative Humidity: 83%
Pressure (altimeter): 30.06 in. Hg (1017 hPa)
ob: KBCT 300247Z 00000KT 10SM CLR 26/23 A3006 RMK LAST
cycle: 3

Station Type Date Time Source
KBCT TAF 2020/02/03 18:20 UTC NOAA

TAF KBCT 031720Z 0318/0418 12005KT P6SM SKC
FM040000 VRB03KT P6SM SKC
FM041400 16011KT P6SM FEW030

Example: see airport list